Flight Track Log - Related Links

Times and Time Zones

All times are in EDT time to prevent confusion due to time zone crossing. See the EJM916 flight status page for this flight to view local times or setup timezone preferences in your user account.


Time Position Orientation Groundspeed Altitude Reporting Facility
EDT Latitude Longitude Course Direction KTS MPH feet Rate Location/Type
Mon 01:01:50 PM 36.0142 -86.6053 78° East 447 514 39,000  Level Memphis Center
Mon 01:02:50 PM 36.0094 -86.4542 92° East 437 503 39,000  Level Memphis Center
Mon 01:04:45 PM 36.0022 -86.1794 92° East 443 510 39,000  Level Atlanta Center
Mon 01:05:45 PM 35.9967 -86.0150 92° East 443 510 39,000  Level Atlanta Center
Mon 01:06:45 PM 35.9925 -85.8633 92° East 443 510 39,000  Level Atlanta Center
Mon 01:07:00 PM 35.4717 -86.2137 78° East  Level Estimated
Mon 01:07:45 PM 35.9881 -85.7478 93° East 436 502 39,000  Level Atlanta Center
Mon 01:08:45 PM 35.9819 -85.5836 93° East 436 502 39,000  Level Atlanta Center
Mon 01:09:45 PM 35.9753 -85.4319 93° East 436 502 39,000  Level Atlanta Center
Mon 01:10:45 PM 35.9706 -85.2831 92° East 436 502 39,000  Level Atlanta Center
Mon 01:11:45 PM 35.9639 -85.1317 93° East 436 502 39,000  Level Atlanta Center
Mon 01:12:45 PM 35.9608 -84.9803 91° East 436 502 39,000  Level Atlanta Center
Mon 01:13:45 PM 35.9494 -84.8108 95° East 457 526 39,000  Level Atlanta Center
Mon 01:14:45 PM 35.9461 -84.6722 92° East 458 527 39,000  Level Atlanta Center
Mon 01:15:45 PM 35.9364 -84.5208 94° East 453 521 39,000  Level Atlanta Center
Mon 01:16:45 PM 35.9286 -84.3542 93° East 441 507 39,000  Level Atlanta Center
Mon 01:17:45 PM 35.9206 -84.2028 94° East 441 507 39,000  Level Atlanta Center
Mon 01:18:45 PM 35.9122 -84.0489 94° East 441 507 39,000  Level Atlanta Center
Mon 01:19:45 PM 35.9039 -83.8978 94° East 441 507 39,000  Level Atlanta Center
Mon 01:20:45 PM 35.8847 -83.7467 99° East 441 507 39,000  Level Atlanta Center
Mon 01:21:45 PM 35.8614 -83.5981 101° East 446 513 39,000  Level Atlanta Center
Mon 01:22:45 PM 35.8400 -83.4494 100° East 446 513 39,000  Level Atlanta Center
Mon 01:23:45 PM 35.8161 -83.2986 101° East 446 513 39,000  Level Atlanta Center
Mon 01:24:45 PM 35.7922 -83.1478 101° East 454 522 39,000 -300 Level Atlanta Center
Mon 01:25:45 PM 35.7722 -82.9969 99° East 449 517 38,400 -700 Descending Atlanta Center
Mon 01:26:45 PM 35.7503 -82.8617 101° East 449 517 37,600 -900 Descending Atlanta Center
Mon 01:27:45 PM 35.7297 -82.7086 99° East 449 517 36,600 -1,050 Descending Atlanta Center
Mon 01:28:45 PM 35.7114 -82.5553 98° East 459 528 35,500 -1,050 Descending Atlanta Center
Mon 01:29:45 PM 35.6844 -82.4000 102° East 461 531 34,500 -1,000 Descending Atlanta Center
Mon 01:30:45 PM 35.6592 -82.2394 101° East 471 542 33,500 -1,100 Descending Atlanta Center
Mon 01:31:45 PM 35.6358 -82.0814 100° East 471 542 32,300 -1,450 Descending Atlanta Center
Mon 01:32:45 PM 35.6081 -81.9211 102° East 471 542 30,600 -1,800 Descending Atlanta Center
Mon 01:33:45 PM 35.5989 -81.7553 94° East 476 548 28,700 -1,700 Descending Atlanta Center
Mon 01:34:45 PM 35.6017 -81.5739 89° East 485 558 27,200 -1,250 Descending Atlanta Center
Mon 01:35:45 PM 35.6044 -81.4028 89° East 490 564 26,200 -1,000 Descending Atlanta Center
Mon 01:36:45 PM 35.6069 -81.2392 89° East 498 573 25,200 -1,050 Descending Atlanta Center
Mon 01:37:45 PM 35.6158 -81.0756 86° East 504 580 24,100 -1,050 Descending Atlanta Center
Mon 01:38:45 PM 35.6222 -80.9117 87° East 488 562 23,100 -1,000 Descending Atlanta Center
Mon 01:39:45 PM 35.6283 -80.7481 87° East 477 549 22,100 -1,000 Descending Atlanta Center
Mon 01:40:45 PM 35.6364 -80.5892 86° East 477 549 21,100 -1,000 Descending Atlanta Center
Mon 01:41:45 PM 35.6444 -80.4306 86° East 465 535 20,100 -1,207 Descending Atlanta Center
Mon 01:43:29 PM 35.6469 -80.1700 89° East 456 525 17,800 -1,527 Descending Washington Center
Mon 01:44:30 PM 35.6378 -80.0236 94° East 434 499 15,900 -1,412 Descending Washington Center
Mon 01:45:28 PM 35.6097 -79.8842 104° East 417 480 15,000 -454 Descending Washington Center
Mon 01:46:29 PM 35.5753 -79.7342 106° East 411 473 15,000 -49 Level Washington Center
Mon 01:47:30 PM 35.5361 -79.5994 110° East 416 479 14,900 -504 Descending Washington Center
Mon 01:48:28 PM 35.5008 -79.4650 108° East 416 479 14,000 -1,008 Descending Washington Center
Mon 01:49:29 PM 35.4672 -79.3358 108° East 405 466 12,900 -1,033 Descending Washington Center
Mon 01:50:30 PM 35.4339 -79.2069 108° East 400 460 11,900 -1,082 Descending Washington Center
Mon 01:51:31 PM 35.4019 -79.0856 108° East 393 452 10,700 -1,373 Descending Washington Center
Mon 01:52:28 PM 35.3733 -78.9928 111° Southeast 359 413 9,200 -1,897 Descending Washington Center
Mon 01:53:28 PM 35.3258 -78.9017 123° Southeast 305 351 7,000 -2,033 Descending Washington Center
Mon 01:54:29 PM 35.2753 -78.8436 137° Southeast 278 320 5,100 -1,983 Descending Washington Center
Mon 01:55:29 PM 35.2100 -78.7875 145° Southeast 266 306 3,000 -1,537 Descending Washington Center
Mon 01:56:30 PM 35.1472 -78.7875 180° South 252 290 2,000 -706 Descending Washington Center
Mon 01:57:28 PM 35.0928 -78.8006 191° South 193 222 1,600 -414 Descending Washington Center

Login

Don't have an account? Register now (free) for customized features, flight alerts, and more!